createdAt,value
2016-08-02T00:00:26.694Z,24.8
2016-08-02T00:01:26.327Z,24.71
2016-08-02T00:02:27.036Z,24.76
2016-08-02T00:03:25.985Z,24.68
2016-08-02T00:04:26.390Z,24.67
2016-08-02T00:05:26.598Z,24.67
2016-08-02T00:06:27.077Z,24.71
2016-08-02T00:07:26.595Z,24.64
2016-08-02T00:08:26.657Z,24.69
2016-08-02T00:09:26.477Z,24.67
2016-08-02T00:10:27.120Z,24.61
2016-08-02T00:11:26.088Z,24.68
2016-08-02T00:12:25.977Z,24.68
2016-08-02T00:13:26.120Z,24.65
2016-08-02T00:14:26.126Z,24.68
2016-08-02T00:15:27.344Z,24.69
2016-08-02T00:16:25.395Z,24.67
2016-08-02T00:17:25.272Z,24.62
2016-08-02T00:18:27.211Z,24.62
2016-08-02T00:19:26.085Z,24.65
2016-08-02T00:20:26.060Z,24.65
2016-08-02T00:21:26.740Z,24.62
2016-08-02T00:22:26.116Z,24.62
2016-08-02T00:23:27.137Z,24.67
2016-08-02T00:24:26.110Z,24.68
2016-08-02T00:25:25.265Z,24.62
2016-08-02T00:26:26.944Z,24.67
2016-08-02T00:27:25.384Z,24.76
2016-08-02T00:28:26.012Z,24.68
2016-08-02T00:29:26.100Z,24.69
2016-08-02T00:30:27.183Z,24.69
2016-08-02T00:31:26.150Z,24.64
2016-08-02T00:32:26.189Z,24.6
2016-08-02T00:33:25.489Z,24.65
2016-08-02T00:34:26.832Z,24.62
2016-08-02T00:35:26.871Z,24.57
2016-08-02T00:36:26.163Z,24.53
2016-08-02T00:37:26.936Z,24.53
2016-08-02T00:38:26.885Z,24.55
2016-08-02T00:39:26.894Z,24.58
2016-08-02T00:40:26.929Z,24.6
2016-08-02T00:41:26.882Z,24.58
2016-08-02T00:42:27.391Z,24.5
2016-08-02T00:43:26.898Z,24.52
2016-08-02T00:44:26.896Z,24.55
2016-08-02T00:45:26.920Z,24.53
2016-08-02T00:46:26.259Z,24.55
2016-08-02T00:47:27.446Z,24.55
2016-08-02T00:48:26.288Z,24.55
2016-08-02T00:49:26.937Z,24.53
2016-08-02T00:50:26.331Z,24.58
2016-08-02T00:51:27.030Z,24.6
2016-08-02T00:52:27.751Z,24.55
2016-08-02T00:53:26.405Z,24.53
2016-08-02T00:54:27.022Z,24.53
2016-08-02T00:55:26.296Z,24.55
2016-08-02T00:56:26.982Z,24.57
2016-08-02T00:57:27.978Z,24.6
2016-08-02T00:58:26.943Z,24.55
2016-08-02T00:59:27.510Z,24.53
2016-08-02T01:00:26.260Z,24.6
2016-08-02T01:01:27.043Z,24.49
2016-08-02T01:02:26.311Z,24.57
2016-08-02T01:03:26.983Z,24.5
2016-08-02T01:04:26.330Z,24.52
2016-08-02T01:05:27.024Z,24.47
2016-08-02T01:06:26.471Z,24.58
2016-08-02T01:07:27.054Z,24.52
2016-08-02T01:08:26.448Z,24.53
2016-08-02T01:09:27.158Z,24.52
2016-08-02T01:10:27.158Z,24.58
2016-08-02T01:11:27.096Z,24.55
2016-08-02T01:12:27.280Z,24.53
2016-08-02T01:13:27.106Z,24.55
2016-08-02T01:14:27.257Z,24.49
2016-08-02T01:15:27.176Z,24.46
2016-08-02T01:16:27.172Z,24.45
2016-08-02T01:17:27.188Z,24.57
2016-08-02T01:18:26.322Z,24.52
2016-08-02T01:19:25.686Z,24.53
2016-08-02T01:20:26.417Z,24.52
2016-08-02T01:21:26.446Z,24.5
2016-08-02T01:22:26.522Z,24.52
2016-08-02T01:23:26.347Z,24.57
2016-08-02T01:24:27.167Z,24.53
2016-08-02T01:25:26.622Z,24.47
2016-08-02T01:26:26.522Z,24.57
2016-08-02T01:27:27.172Z,24.52
2016-08-02T01:28:27.279Z,24.52
2016-08-02T01:29:27.485Z,24.52
2016-08-02T01:30:26.475Z,24.58
2016-08-02T01:31:26.508Z,24.53
2016-08-02T01:32:27.359Z,24.49
2016-08-02T01:33:27.262Z,24.49
2016-08-02T01:34:26.487Z,24.52
2016-08-02T01:35:27.277Z,24.58
2016-08-02T01:36:26.541Z,24.53
2016-08-02T01:37:27.552Z,24.52
2016-08-02T01:38:27.491Z,24.5
2016-08-02T01:39:26.172Z,24.47
2016-08-02T01:40:27.300Z,24.49
2016-08-02T01:41:26.660Z,24.4
2016-08-02T01:42:25.867Z,24.46
2016-08-02T01:43:26.618Z,24.47
2016-08-02T01:44:27.295Z,24.55
2016-08-02T01:45:27.436Z,24.55
2016-08-02T01:46:27.286Z,24.5
2016-08-02T01:47:26.531Z,24.55
2016-08-02T01:48:27.354Z,24.49
2016-08-02T01:49:27.301Z,24.55
2016-08-02T01:50:27.523Z,24.46
2016-08-02T01:51:27.342Z,24.53
2016-08-02T01:52:26.574Z,24.49
2016-08-02T01:53:26.710Z,24.55
2016-08-02T01:54:41.080Z,24.55
2016-08-02T01:55:27.486Z,24.5
2016-08-02T01:56:27.567Z,24.49
2016-08-02T01:57:26.683Z,24.52
2016-08-02T01:58:27.488Z,24.57
2016-08-02T01:59:27.505Z,24.5
2016-08-02T02:00:27.526Z,24.57
2016-08-02T02:01:26.717Z,24.52
2016-08-02T02:02:26.656Z,24.53
2016-08-02T02:03:27.389Z,24.52
2016-08-02T02:04:26.658Z,24.43
2016-08-02T02:05:27.557Z,24.5
2016-08-02T02:06:26.030Z,24.53
2016-08-02T02:07:26.782Z,24.47
2016-08-02T02:08:27.783Z,24.5
2016-08-02T02:09:26.697Z,24.52
2016-08-02T02:10:27.438Z,24.55
2016-08-02T02:11:27.481Z,24.53
2016-08-02T02:12:27.565Z,24.53
2016-08-02T02:13:26.821Z,24.53
2016-08-02T02:14:27.560Z,24.52
2016-08-02T02:15:26.681Z,24.52
2016-08-02T02:16:26.713Z,24.52
2016-08-02T02:17:26.814Z,24.43
2016-08-02T02:18:26.768Z,24.43
2016-08-02T02:19:27.549Z,24.47
2016-08-02T02:20:26.080Z,24.4
2016-08-02T02:21:27.604Z,24.43
2016-08-02T02:22:26.869Z,24.43
2016-08-02T02:23:27.590Z,24.5
2016-08-02T02:24:26.952Z,24.46
2016-08-02T02:25:27.592Z,24.43
2016-08-02T02:26:26.137Z,24.5
2016-08-02T02:27:26.322Z,24.49
2016-08-02T02:28:26.115Z,24.46
2016-08-02T02:29:26.678Z,24.47
2016-08-02T02:30:26.843Z,24.47
2016-08-02T02:31:26.141Z,24.46
2016-08-02T02:32:26.977Z,24.47
2016-08-02T02:33:26.274Z,24.4
2016-08-02T02:34:26.965Z,24.45
2016-08-02T02:35:26.838Z,24.45
2016-08-02T02:36:26.955Z,24.49
2016-08-02T02:37:28.234Z,24.49
2016-08-02T02:38:26.991Z,24.43
2016-08-02T02:39:26.266Z,24.5
2016-08-02T02:40:27.748Z,24.32
2016-08-02T02:41:27.682Z,24.39
2016-08-02T02:42:27.722Z,24.43
2016-08-02T02:43:26.990Z,24.35
2016-08-02T02:44:26.893Z,24.4
2016-08-02T02:45:27.053Z,24.4
2016-08-02T02:46:27.067Z,24.35
2016-08-02T02:47:27.717Z,24.35
2016-08-02T02:48:27.662Z,24.35
2016-08-02T02:49:27.771Z,24.39
2016-08-02T02:50:27.054Z,24.37
2016-08-02T02:51:27.166Z,24.35
2016-08-02T02:52:27.011Z,24.31
2016-08-02T02:53:27.180Z,24.3
2016-08-02T02:54:26.340Z,24.31
2016-08-02T02:55:27.001Z,24.34
2016-08-02T02:56:29.508Z,24.34
2016-08-02T02:57:26.982Z,24.34
2016-08-02T02:58:27.751Z,24.35
2016-08-02T02:59:26.383Z,24.3
2016-08-02T03:00:27.007Z,24.27
2016-08-02T03:01:27.872Z,24.25
2016-08-02T03:02:27.693Z,24.35
2016-08-02T03:03:27.880Z,24.34
2016-08-02T03:04:27.139Z,24.31
2016-08-02T03:05:27.739Z,24.28
2016-08-02T03:06:27.079Z,24.3
2016-08-02T03:07:27.919Z,24.28
2016-08-02T03:08:27.982Z,24.34
2016-08-02T03:09:27.869Z,24.34
2016-08-02T03:10:27.043Z,24.28
2016-08-02T03:11:28.026Z,24.3
2016-08-02T03:12:27.997Z,24.27
2016-08-02T03:13:28.321Z,24.39
2016-08-02T03:14:27.928Z,24.3
2016-08-02T03:15:27.927Z,24.37
2016-08-02T03:16:27.944Z,24.3
2016-08-02T03:17:27.183Z,24.31
2016-08-02T03:18:27.925Z,24.31
2016-08-02T03:19:27.270Z,24.28
2016-08-02T03:20:27.217Z,24.28
2016-08-02T03:21:27.198Z,24.32
2016-08-02T03:22:27.220Z,24.28
2016-08-02T03:23:27.240Z,24.31
2016-08-02T03:24:27.267Z,24.37
2016-08-02T03:25:27.915Z,24.3
2016-08-02T03:26:28.030Z,24.35
2016-08-02T03:27:27.420Z,24.35
2016-08-02T03:28:27.423Z,24.42
2016-08-02T03:29:27.270Z,24.31
2016-08-02T03:30:27.897Z,24.37
2016-08-02T03:31:27.944Z,24.39
2016-08-02T03:32:27.954Z,24.37
2016-08-02T03:33:27.279Z,24.37
2016-08-02T03:34:27.308Z,24.4
2016-08-02T03:35:28.065Z,24.37
2016-08-02T03:36:27.295Z,24.43
2016-08-02T03:37:28.184Z,24.34
2016-08-02T03:38:27.939Z,24.37
2016-08-02T03:39:28.208Z,24.37
2016-08-02T03:40:27.518Z,24.42
2016-08-02T03:41:27.938Z,24.32
2016-08-02T03:42:27.855Z,24.31
2016-08-02T03:43:27.318Z,24.35
2016-08-02T03:44:28.160Z,24.28
2016-08-02T03:45:28.467Z,24.32
2016-08-02T03:46:27.990Z,24.3
2016-08-02T03:47:27.513Z,24.3
2016-08-02T03:48:28.090Z,24.31
2016-08-02T03:49:28.091Z,24.31
2016-08-02T03:50:28.181Z,24.31
2016-08-02T03:51:27.998Z,24.31
2016-08-02T03:52:27.365Z,24.39
2016-08-02T03:53:26.598Z,24.34
2016-08-02T03:54:37.765Z,24.31
2016-08-02T03:55:27.452Z,24.28
2016-08-02T03:56:28.183Z,24.3
2016-08-02T03:57:27.649Z,24.3
2016-08-02T03:58:27.418Z,24.34
2016-08-02T03:59:27.363Z,24.28
2016-08-02T04:00:28.133Z,24.25
2016-08-02T04:01:27.559Z,24.32
2016-08-02T04:02:28.276Z,24.22
2016-08-02T04:03:28.313Z,24.22
2016-08-02T04:04:28.275Z,24.22
2016-08-02T04:05:27.611Z,24.31
2016-08-02T04:06:27.398Z,24.28
2016-08-02T04:07:27.394Z,24.28
2016-08-02T04:08:27.562Z,24.27
2016-08-02T04:09:27.417Z,24.28
2016-08-02T04:10:27.612Z,24.21
2016-08-02T04:11:27.589Z,24.24
2016-08-02T04:12:27.605Z,24.21
2016-08-02T04:13:27.572Z,24.27
2016-08-02T04:14:27.642Z,24.25
2016-08-02T04:15:27.665Z,24.21
2016-08-02T04:16:28.367Z,24.25
2016-08-02T04:17:28.358Z,24.25
2016-08-02T04:18:27.495Z,24.22
2016-08-02T04:19:28.216Z,24.24
2016-08-02T04:20:28.415Z,24.21
2016-08-02T04:21:26.864Z,24.21
2016-08-02T04:22:29.113Z,24.24
2016-08-02T04:23:28.348Z,24.24
2016-08-02T04:24:27.608Z,24.18
2016-08-02T04:25:28.543Z,24.21
2016-08-02T04:26:28.294Z,24.21
2016-08-02T04:27:27.671Z,24.13
2016-08-02T04:28:28.314Z,24.22
2016-08-02T04:29:28.364Z,24.25
2016-08-02T04:30:27.723Z,24.25
2016-08-02T04:31:28.483Z,24.22
2016-08-02T04:32:27.824Z,24.21
2016-08-02T04:33:29.339Z,24.25
2016-08-02T04:34:28.391Z,24.25
2016-08-02T04:35:28.343Z,24.22
2016-08-02T04:36:28.391Z,24.28
2016-08-02T04:37:28.469Z,24.21
2016-08-02T04:38:27.028Z,24.22
2016-08-02T04:40:27.722Z,24.22
2016-08-02T04:41:28.474Z,24.2
2016-08-02T04:42:28.407Z,24.24
2016-08-02T04:43:28.353Z,24.21
2016-08-02T04:44:28.752Z,24.24
2016-08-02T04:45:28.582Z,24.25
2016-08-02T04:46:28.517Z,24.22
2016-08-02T04:47:27.810Z,24.25
2016-08-02T04:48:28.560Z,24.22
2016-08-02T04:49:28.504Z,24.22
2016-08-02T04:50:27.825Z,24.22
2016-08-02T04:51:28.394Z,24.27
2016-08-02T04:52:28.569Z,24.27
2016-08-02T04:53:27.759Z,24.21
2016-08-02T04:55:27.240Z,24.2
2016-08-02T04:56:27.750Z,24.21
2016-08-02T04:57:28.837Z,24.25
2016-08-02T04:58:27.881Z,24.25
2016-08-02T04:59:27.781Z,24.24
2016-08-02T05:00:28.026Z,24.22
2016-08-02T05:01:27.762Z,24.27
2016-08-02T05:02:28.476Z,24.27
2016-08-02T05:03:28.681Z,24.22
2016-08-02T05:04:27.143Z,24.22
2016-08-02T05:05:27.561Z,24.27
2016-08-02T05:06:28.649Z,24.24
2016-08-02T05:07:27.889Z,24.2
2016-08-02T05:08:28.693Z,24.25
2016-08-02T05:10:27.093Z,24.18
2016-08-02T05:11:27.100Z,24.22
2016-08-02T05:12:28.710Z,24.21
2016-08-02T05:13:28.847Z,24.2
2016-08-02T05:14:27.999Z,24.16
2016-08-02T05:15:27.840Z,24.15
2016-08-02T05:16:27.898Z,24.22
2016-08-02T05:17:28.607Z,24.24
2016-08-02T05:18:27.988Z,24.24
2016-08-02T05:19:27.859Z,24.2
2016-08-02T05:20:28.715Z,24.22
2016-08-02T05:21:28.680Z,24.22
2016-08-02T05:22:28.683Z,24.21
2016-08-02T05:23:27.940Z,24.18
2016-08-02T05:24:37.827Z,24.16
2016-08-02T05:25:28.761Z,24.21
2016-08-02T05:26:28.698Z,24.21
2016-08-02T05:27:27.959Z,24.2
2016-08-02T05:28:27.339Z,24.15
2016-08-02T05:29:28.772Z,24.24
2016-08-02T05:30:27.933Z,24.1
2016-08-02T05:31:28.130Z,24.18
2016-08-02T05:32:28.801Z,24.15
2016-08-02T05:33:27.420Z,24.22
2016-08-02T05:34:28.077Z,24.13
2016-08-02T05:35:29.086Z,24.21
2016-08-02T05:36:27.322Z,24.18
2016-08-02T05:37:28.814Z,24.21
2016-08-02T05:38:28.133Z,24.25
2016-08-02T05:40:27.990Z,24.09
2016-08-02T05:41:28.745Z,24.1
2016-08-02T05:42:28.874Z,24.15
2016-08-02T05:43:28.013Z,24.1
2016-08-02T05:44:28.097Z,24.09
2016-08-02T05:45:28.845Z,24.13
2016-08-02T05:46:28.029Z,24.12
2016-08-02T05:47:28.953Z,24.13
2016-08-02T05:48:28.974Z,24.13
2016-08-02T05:49:28.050Z,24.13
2016-08-02T05:50:28.135Z,24.13
2016-08-02T05:51:27.360Z,24.21
2016-08-02T05:52:28.890Z,24.1
2016-08-02T05:53:28.822Z,24.18
2016-08-02T05:55:28.847Z,24.15
2016-08-02T05:56:28.827Z,24.21
2016-08-02T05:58:28.156Z,24.08
2016-08-02T05:59:28.904Z,24.15
2016-08-02T06:00:28.209Z,24.13
2016-08-02T06:01:28.916Z,24.2
2016-08-02T06:02:28.916Z,24.15
2016-08-02T06:03:28.853Z,24.16
2016-08-02T06:04:29.100Z,24.16
2016-08-02T06:05:28.159Z,24.13
2016-08-02T06:06:28.210Z,24.1
2016-08-02T06:07:28.240Z,24.1
2016-08-02T06:08:28.381Z,24.21
2016-08-02T06:10:28.984Z,24.16
2016-08-02T06:11:28.339Z,24.09
2016-08-02T06:12:28.499Z,24.16
2016-08-02T06:13:28.292Z,24.21
2016-08-02T06:14:28.917Z,24.2
2016-08-02T06:15:29.147Z,24.18
2016-08-02T06:16:28.240Z,24.15
2016-08-02T06:17:28.230Z,24.13
2016-08-02T06:18:28.286Z,24.18
2016-08-02T06:19:28.356Z,24.22
2016-08-02T06:20:28.378Z,24.2
2016-08-02T06:21:27.688Z,24.18
2016-08-02T06:22:29.089Z,24.13
2016-08-02T06:23:29.016Z,24.13
2016-08-02T06:25:28.294Z,24.18
2016-08-02T06:26:28.308Z,24.16
2016-08-02T06:27:29.180Z,24.16
2016-08-02T06:28:29.025Z,24.18
2016-08-02T06:29:28.376Z,24.13
2016-08-02T06:30:28.325Z,24.08
2016-08-02T06:31:28.378Z,24.16
2016-08-02T06:32:29.106Z,24.2
2016-08-02T06:33:28.331Z,24.09
2016-08-02T06:34:28.417Z,24.15
2016-08-02T06:35:29.161Z,24.2
2016-08-02T06:36:28.441Z,24.2
2016-08-02T06:37:28.360Z,24.16
2016-08-02T06:38:28.464Z,24.22
2016-08-02T06:39:28.550Z,24.16
2016-08-02T06:40:28.380Z,24.2
2016-08-02T06:41:28.384Z,24.18
2016-08-02T06:42:28.418Z,24.16
2016-08-02T06:43:27.781Z,24.16
2016-08-02T06:44:28.403Z,24.2
2016-08-02T06:45:29.306Z,24.21
2016-08-02T06:46:27.712Z,24.2
2016-08-02T06:47:29.279Z,24.18
2016-08-02T06:48:29.233Z,24.16
2016-08-02T06:49:28.665Z,24.21
2016-08-02T06:50:29.249Z,24.15
2016-08-02T06:51:27.933Z,24.13
2016-08-02T06:52:27.844Z,24.16
2016-08-02T06:53:29.174Z,24.15
2016-08-02T06:54:29.279Z,24.18
2016-08-02T06:55:28.483Z,24.1
2016-08-02T06:56:27.833Z,24.13
2016-08-02T06:57:27.784Z,24.03
2016-08-02T06:58:29.255Z,24.05
2016-08-02T06:59:28.787Z,24.15
2016-08-02T07:00:29.355Z,24.1
2016-08-02T07:01:27.957Z,24.13
2016-08-02T07:02:29.386Z,24.16
2016-08-02T07:03:29.265Z,24.16
2016-08-02T07:04:28.534Z,24.13
2016-08-02T07:05:28.593Z,24.13
2016-08-02T07:06:29.376Z,24.09
2016-08-02T07:07:29.374Z,24.15
2016-08-02T07:08:29.320Z,24.15
2016-08-02T07:09:27.916Z,24.16
2016-08-02T07:10:29.281Z,24.06
2016-08-02T07:11:28.733Z,24.13
2016-08-02T07:12:29.418Z,24.13
2016-08-02T07:13:28.625Z,24.18
2016-08-02T07:14:28.657Z,24.16
2016-08-02T07:15:29.447Z,24.09
2016-08-02T07:16:30.576Z,24.12
2016-08-02T07:17:28.715Z,24.12
2016-08-02T07:18:29.383Z,24.12
2016-08-02T07:19:29.448Z,24.08
2016-08-02T07:20:29.459Z,24.06
2016-08-02T07:21:29.437Z,24.12
2016-08-02T07:22:29.566Z,24.13
2016-08-02T07:23:29.491Z,24.12
2016-08-02T07:25:28.670Z,24.09
2016-08-02T07:26:29.546Z,24.02
2016-08-02T07:27:28.891Z,24.12
2016-08-02T07:28:28.787Z,24.03
2016-08-02T07:29:29.403Z,24.06
2016-08-02T07:30:27.997Z,24.13
2016-08-02T07:31:28.873Z,24.06
2016-08-02T07:32:28.716Z,24.08
2016-08-02T07:33:28.068Z,24.09
2016-08-02T07:34:28.739Z,24.08
2016-08-02T07:35:28.859Z,24.05
2016-08-02T07:36:28.206Z,24.03
2016-08-02T07:37:28.066Z,24.06
2016-08-02T07:38:28.754Z,24.05
2016-08-02T07:39:28.383Z,24.09
2016-08-02T07:40:28.880Z,24.16
2016-08-02T07:41:28.771Z,24.15
2016-08-02T07:42:28.794Z,24.03
2016-08-02T07:43:29.507Z,24.06
2016-08-02T07:44:28.789Z,24.09
2016-08-02T07:45:29.696Z,24.12
2016-08-02T07:46:28.890Z,24.1
2016-08-02T07:47:28.106Z,24.12
2016-08-02T07:48:29.607Z,24.08
2016-08-02T07:49:29.007Z,24.1
2016-08-02T07:50:28.835Z,24.05
2016-08-02T07:51:28.152Z,24.1
2016-08-02T07:52:29.727Z,24.13
2016-08-02T07:53:28.152Z,24.09
2016-08-02T07:55:28.292Z,24.06
2016-08-02T07:56:28.955Z,24.03
2016-08-02T07:57:29.705Z,24.08
2016-08-02T07:58:29.743Z,24.06
2016-08-02T07:59:29.138Z,24.02
2016-08-02T08:00:29.001Z,24.02
2016-08-02T08:01:29.694Z,24.03
2016-08-02T08:02:28.975Z,24.08
2016-08-02T08:03:29.177Z,24.08
2016-08-02T08:04:28.928Z,24.05
2016-08-02T08:05:29.030Z,24.06
2016-08-02T08:06:28.254Z,24.1
2016-08-02T08:07:29.690Z,24.08
2016-08-02T08:08:28.301Z,24.09
2016-08-02T08:09:28.955Z,24.03
2016-08-02T08:10:29.748Z,24.1
2016-08-02T08:11:28.341Z,24.05
2016-08-02T08:12:28.381Z,24.09
2016-08-02T08:13:28.996Z,24.05
2016-08-02T08:14:29.774Z,24.1
2016-08-02T08:15:29.084Z,24.12
2016-08-02T08:16:29.063Z,24.06
2016-08-02T08:17:29.011Z,24.03
2016-08-02T08:18:29.071Z,24.09
2016-08-02T08:19:29.021Z,24.1
2016-08-02T08:20:29.177Z,24.1
2016-08-02T08:21:29.212Z,24.09
2016-08-02T08:22:29.105Z,23.98
2016-08-02T08:23:29.094Z,24.09
2016-08-02T08:25:29.878Z,24.09
2016-08-02T08:26:29.773Z,24.16
2016-08-02T08:27:28.365Z,24.16
2016-08-02T08:28:29.083Z,24.1
2016-08-02T08:29:29.087Z,24.1
2016-08-02T08:30:29.841Z,24.13
2016-08-02T08:31:28.410Z,24.09
2016-08-02T08:32:29.109Z,24.12
2016-08-02T08:33:29.112Z,24.13
2016-08-02T08:34:29.830Z,24.03
2016-08-02T08:35:29.126Z,24.2
2016-08-02T08:36:29.837Z,24.16
2016-08-02T08:37:29.847Z,24.16
2016-08-02T08:38:29.851Z,24.21
2016-08-02T08:39:29.155Z,24.22
2016-08-02T08:40:28.450Z,24.2
2016-08-02T08:41:29.871Z,24.2
2016-08-02T08:42:29.929Z,24.2
2016-08-02T08:43:29.886Z,24.22
2016-08-02T08:44:29.898Z,24.18
2016-08-02T08:45:29.191Z,24.27
2016-08-02T08:46:29.198Z,24.24
2016-08-02T08:47:29.206Z,24.21
2016-08-02T08:48:29.943Z,24.18
2016-08-02T08:49:29.218Z,24.2
2016-08-02T08:50:28.520Z,24.25
2016-08-02T08:51:29.941Z,24.2
2016-08-02T08:52:29.241Z,24.15
2016-08-02T08:53:29.245Z,24.13
2016-08-02T08:54:28.545Z,24.13
2016-08-02T08:55:29.968Z,24.12
2016-08-02T08:56:29.263Z,24.08
2016-08-02T08:57:29.977Z,24.15
2016-08-02T08:58:28.572Z,24.09
2016-08-02T08:59:29.287Z,24.09
2016-08-02T09:00:30.030Z,24.05
2016-08-02T09:01:28.591Z,24.09
2016-08-02T09:02:29.172Z,24.06
2016-08-02T09:03:29.140Z,23.88
2016-08-02T09:04:29.919Z,23.91
2016-08-02T09:05:29.178Z,24
2016-08-02T09:06:30.095Z,24.03
2016-08-02T09:07:30.038Z,24.08
2016-08-02T09:08:29.218Z,24.03
2016-08-02T09:09:29.860Z,23.9
2016-08-02T09:10:29.372Z,23.94
2016-08-02T09:11:28.663Z,24.02
2016-08-02T09:12:29.374Z,24.03
2016-08-02T09:13:29.954Z,24.02
2016-08-02T09:14:28.680Z,24.12
2016-08-02T09:15:30.096Z,24.15
2016-08-02T09:16:30.111Z,24.13
2016-08-02T09:17:30.160Z,24.13
2016-08-02T09:18:29.570Z,24.05
2016-08-02T09:19:29.413Z,24.13
2016-08-02T09:20:29.421Z,24.13
2016-08-02T09:21:28.776Z,24.1
2016-08-02T09:22:30.203Z,24.12
2016-08-02T09:23:28.734Z,24.12
2016-08-02T09:24:29.456Z,24.06
2016-08-02T09:25:29.458Z,24.16
2016-08-02T09:26:28.755Z,24.18
2016-08-02T09:27:29.465Z,24.13
2016-08-02T09:28:29.523Z,24.22
2016-08-02T09:29:30.191Z,24.13
2016-08-02T09:30:30.195Z,24.18
2016-08-02T09:31:28.787Z,24.12
2016-08-02T09:32:30.209Z,23.98
2016-08-02T09:33:30.214Z,24
2016-08-02T09:34:30.226Z,24.03
2016-08-02T09:35:29.522Z,23.98
2016-08-02T09:36:28.815Z,24.02
2016-08-02T09:37:29.530Z,24.02
2016-08-02T09:38:28.832Z,24.02
2016-08-02T09:39:29.891Z,23.93
2016-08-02T09:40:28.860Z,23.95
2016-08-02T09:41:29.555Z,24.16
2016-08-02T09:42:29.574Z,24.02
2016-08-02T09:43:28.861Z,24.05
2016-08-02T09:44:29.578Z,24.08
2016-08-02T09:45:30.348Z,24.18
2016-08-02T09:46:30.305Z,24.13
2016-08-02T09:47:30.303Z,24.12
2016-08-02T09:48:30.661Z,24.09
2016-08-02T09:49:29.711Z,24.1
2016-08-02T09:50:29.624Z,24.2
2016-08-02T09:51:29.621Z,24.25
2016-08-02T09:52:30.336Z,24.3
2016-08-02T09:53:30.346Z,24.2
2016-08-02T09:54:29.741Z,24.25
2016-08-02T09:55:29.172Z,24.32
2016-08-02T09:56:29.656Z,24.27
2016-08-02T09:57:30.372Z,24.24
2016-08-02T09:58:30.383Z,24.15
2016-08-02T09:59:30.377Z,24.18
2016-08-02T10:00:29.731Z,24.05
2016-08-02T10:01:29.739Z,24.13
2016-08-02T10:02:29.695Z,24.12
2016-08-02T10:03:29.697Z,24.08
2016-08-02T10:04:28.996Z,24.12
2016-08-02T10:05:30.427Z,24.15
2016-08-02T10:06:29.772Z,24.21
2016-08-02T10:07:29.729Z,24.27
2016-08-02T10:08:30.448Z,24.3
2016-08-02T10:09:29.741Z,24.32
2016-08-02T10:10:29.021Z,24.37
2016-08-02T10:11:29.770Z,24.31
2016-08-02T10:12:29.856Z,24.32
2016-08-02T10:13:29.768Z,24.25
2016-08-02T10:14:30.476Z,24.3
2016-08-02T10:15:30.538Z,24.27
2016-08-02T10:16:30.548Z,24.28
2016-08-02T10:17:29.849Z,24.21
2016-08-02T10:18:29.798Z,24.27
2016-08-02T10:19:29.099Z,24.28
2016-08-02T10:20:29.862Z,24.35
2016-08-02T10:21:29.817Z,24.34
2016-08-02T10:22:30.529Z,24.3
2016-08-02T10:23:29.835Z,24.27
2016-08-02T10:24:29.838Z,24.24
2016-08-02T10:26:29.142Z,24.22
2016-08-02T10:27:30.567Z,24.22
2016-08-02T10:28:29.865Z,24.28
2016-08-02T10:29:30.577Z,24.35
2016-08-02T10:30:29.172Z,24.35
2016-08-02T10:31:29.882Z,24.27
2016-08-02T10:32:30.643Z,24.22
2016-08-02T10:33:30.603Z,24.3
2016-08-02T10:34:29.914Z,24.32
2016-08-02T10:35:29.910Z,24.37
2016-08-02T10:36:30.622Z,24.39
2016-08-02T10:37:29.216Z,24.45
2016-08-02T10:38:29.979Z,24.42
2016-08-02T10:39:29.946Z,24.43
2016-08-02T10:40:29.264Z,24.35
2016-08-02T10:41:29.949Z,24.43
2016-08-02T10:42:29.967Z,24.31
2016-08-02T10:43:30.670Z,24.3
2016-08-02T10:44:29.968Z,24.3
2016-08-02T10:45:30.681Z,24.24
2016-08-02T10:46:29.276Z,24.28
2016-08-02T10:47:29.286Z,24.31
2016-08-02T10:48:29.994Z,24.28
2016-08-02T10:49:30.705Z,24.37
2016-08-02T10:50:30.005Z,24.32
2016-08-02T10:51:30.722Z,24.43
2016-08-02T10:52:29.315Z,24.4
2016-08-02T10:53:30.029Z,24.39
2016-08-02T10:54:30.739Z,24.42
2016-08-02T10:56:30.100Z,24.34
2016-08-02T10:57:29.345Z,24.39
2016-08-02T10:58:30.765Z,24.39
2016-08-02T10:59:30.066Z,24.43
2016-08-02T11:00:30.831Z,24.47
2016-08-02T11:01:30.788Z,24.47
2016-08-02T11:02:30.086Z,24.52
2016-08-02T11:03:30.094Z,24.46
2016-08-02T11:04:30.150Z,24.49
2016-08-02T11:05:30.104Z,24.47
2016-08-02T11:06:30.161Z,24.47
2016-08-02T11:07:30.168Z,24.37
2016-08-02T11:08:30.883Z,24.4
2016-08-02T11:09:30.838Z,24.45
2016-08-02T11:11:29.452Z,24.5
2016-08-02T11:12:30.152Z,24.46
2016-08-02T11:13:30.159Z,24.45
2016-08-02T11:14:29.462Z,24.45
2016-08-02T11:15:30.878Z,24.43
2016-08-02T11:16:29.482Z,24.49
2016-08-02T11:17:30.236Z,24.46
2016-08-02T11:18:30.896Z,24.47
2016-08-02T11:19:30.904Z,24.47
2016-08-02T11:20:30.209Z,24.46
2016-08-02T11:21:30.215Z,24.45
2016-08-02T11:22:30.230Z,24.52
2016-08-02T11:23:30.254Z,24.32
2016-08-02T11:24:48.728Z,24.46
2016-08-02T11:26:29.538Z,24.39
2016-08-02T11:27:30.970Z,24.37
2016-08-02T11:28:30.267Z,24.32
2016-08-02T11:29:29.559Z,24.39
2016-08-02T11:30:30.269Z,24.3
2016-08-02T11:31:29.571Z,24.35
2016-08-02T11:32:30.991Z,24.31
2016-08-02T11:33:30.994Z,24.42
2016-08-02T11:34:30.296Z,24.32
2016-08-02T11:35:29.600Z,24.31
2016-08-02T11:36:31.020Z,24.37
2016-08-02T11:37:30.317Z,24.39
2016-08-02T11:38:31.032Z,24.37
2016-08-02T11:39:30.502Z,24.3
2016-08-02T11:41:30.350Z,24.35
2016-08-02T11:42:30.351Z,24.42
2016-08-02T11:43:29.650Z,24.31
2016-08-02T11:44:29.664Z,24.34
2016-08-02T11:45:29.660Z,24.32
2016-08-02T11:46:30.424Z,24.31
2016-08-02T11:47:31.090Z,24.34
2016-08-02T11:48:31.145Z,24.28
2016-08-02T11:49:31.099Z,24.25
2016-08-02T11:50:31.109Z,24.24
2016-08-02T11:51:45.668Z,24.24
2016-08-02T11:52:31.123Z,24.31
2016-08-02T11:53:31.198Z,24.21
2016-08-02T11:54:30.480Z,24.21
2016-08-02T11:55:30.436Z,24.25
2016-08-02T11:56:31.153Z,24.24
2016-08-02T11:57:30.447Z,24.21
2016-08-02T11:58:30.455Z,24.28
2016-08-02T11:59:30.509Z,24.22
2016-08-02T12:00:29.765Z,24.34
2016-08-02T12:01:30.478Z,24.34
2016-08-02T12:02:31.190Z,24.39
2016-08-02T12:03:30.492Z,24.4
2016-08-02T12:04:30.547Z,24.37
2016-08-02T12:05:31.216Z,24.32
2016-08-02T12:06:30.508Z,24.34
2016-08-02T12:07:30.514Z,24.31
2016-08-02T12:08:30.524Z,24.34
2016-08-02T12:09:31.237Z,24.35
2016-08-02T12:10:29.839Z,24.42
2016-08-02T12:11:30.538Z,24.47
2016-08-02T12:12:30.544Z,24.52
2016-08-02T12:13:30.553Z,24.46
2016-08-02T12:14:31.264Z,24.45
2016-08-02T12:15:30.614Z,24.47
2016-08-02T12:16:29.875Z,24.55
2016-08-02T12:17:30.578Z,24.45
2016-08-02T12:18:30.585Z,24.57
2016-08-02T12:19:30.589Z,24.52
2016-08-02T12:20:31.308Z,24.55
2016-08-02T12:21:29.896Z,24.55
2016-08-02T12:22:30.610Z,24.49
2016-08-02T12:23:31.320Z,24.53
2016-08-02T12:25:29.918Z,24.46
2016-08-02T12:26:29.936Z,24.55
2016-08-02T12:27:31.349Z,24.49
2016-08-02T12:28:30.647Z,24.6
2016-08-02T12:29:31.365Z,24.6
2016-08-02T12:30:31.369Z,24.58
2016-08-02T12:31:31.377Z,24.55
2016-08-02T12:32:30.020Z,24.57
2016-08-02T12:33:31.438Z,24.62
2016-08-02T12:34:30.888Z,24.5
2016-08-02T12:35:31.992Z,24.5
2016-08-02T12:36:31.452Z,24.49
2016-08-02T12:37:29.993Z,24.55
2016-08-02T12:38:31.419Z,24.57
2016-08-02T12:39:30.717Z,24.43
2016-08-02T12:40:30.014Z,24.52
2016-08-02T12:41:31.434Z,24.52
2016-08-02T12:42:31.468Z,24.47
2016-08-02T12:43:31.521Z,24.4
2016-08-02T12:44:30.803Z,24.46
2016-08-02T12:45:30.811Z,24.45
2016-08-02T12:46:30.761Z,24.45
2016-08-02T12:47:30.067Z,24.43
2016-08-02T12:48:30.868Z,24.5
2016-08-02T12:49:31.499Z,24.35
2016-08-02T12:50:31.492Z,24.4
2016-08-02T12:51:30.796Z,24.47
2016-08-02T12:52:31.508Z,24.47
2016-08-02T12:53:31.513Z,24.5
2016-08-02T12:54:31.578Z,24.49
2016-08-02T12:55:31.575Z,24.45
2016-08-02T12:56:31.536Z,24.37
2016-08-02T12:57:31.537Z,24.35
2016-08-02T12:58:30.837Z,24.35
2016-08-02T12:59:30.144Z,24.43
2016-08-02T13:00:30.865Z,24.49
2016-08-02T13:01:31.563Z,24.46
2016-08-02T13:02:30.919Z,24.52
2016-08-02T13:03:30.179Z,24.49
2016-08-02T13:04:30.883Z,24.58
2016-08-02T13:05:30.881Z,24.52
2016-08-02T13:06:30.888Z,24.5
2016-08-02T13:07:30.245Z,24.57
2016-08-02T13:08:31.608Z,24.53
2016-08-02T13:09:31.619Z,24.53
2016-08-02T13:10:31.618Z,24.55
2016-08-02T13:11:31.627Z,24.5
2016-08-02T13:12:30.926Z,24.52
2016-08-02T13:13:31.641Z,24.5